Time;durP1;ratioP1;P1;durP2;ratioP2;P2;SDS_P1;SDS_P2;PMS_P1;PMS_P2;Temp;Humidity;BMP_temperature;BMP_pressure;BME280_temperature;BME280_humidity;BME280_pressure;Samples;Min_cycle;Max_cycle;Signal;HPM_P1;HPM_P2
2023/08/01 00:00:05;;;;;;;7.47;2.58;;;;;;;;;;5055386;28;20021;-75
2023/08/01 00:02:31;;;;;;;8.70;2.80;;;;;;;;;;5055513;28;20021;-76
2023/08/01 00:04:57;;;;;;;11.32;2.38;;;;;;;;;;5055193;28;20025;-76
2023/08/01 00:07:23;;;;;;;9.75;3.00;;;;;;;;;;5055134;28;20040;-76
2023/08/01 00:09:49;;;;;;;8.80;2.20;;;;;;;;;;5055050;28;20439;-76
2023/08/01 00:12:15;;;;;;;4.53;2.50;;;;;;;;;;5054966;28;20037;-76
2023/08/01 00:14:41;;;;;;;7.32;2.15;;;;;;;;;;5054737;28;20053;-76
2023/08/01 00:17:07;;;;;;;5.60;1.90;;;;;;;;;;5054961;28;20025;-76
2023/08/01 00:19:33;;;;;;;6.72;2.22;;;;;;;;;;5054865;28;20029;-76
2023/08/01 00:21:59;;;;;;;8.25;2.50;;;;;;;;;;5054797;28;20509;-76
2023/08/01 00:24:25;;;;;;;7.88;2.35;;;;;;;;;;5054844;28;20021;-76
2023/08/01 00:26:54;;;;;;;7.28;2.20;;;;;;;;;;5054773;28;20563;-76
2023/08/01 00:29:20;;;;;;;11.00;2.75;;;;;;;;;;5055028;28;20117;-76
2023/08/01 00:31:46;;;;;;;5.93;2.38;;;;;;;;;;5054821;28;20044;-76
2023/08/01 00:34:12;;;;;;;4.68;2.67;;;;;;;;;;5054587;28;20025;-76
2023/08/01 00:36:38;;;;;;;6.43;2.80;;;;;;;;;;5054561;28;20025;-76
2023/08/01 00:39:06;;;;;;;8.60;2.70;;;;;;;;;;5054588;28;20025;-76
2023/08/01 00:41:32;;;;;;;12.68;3.25;;;;;;;;;;5054858;28;20033;-76
2023/08/01 00:43:58;;;;;;;8.65;3.20;;;;;;;;;;5053650;28;20472;-76
2023/08/01 00:46:25;;;;;;;10.65;3.55;;;;;;;;;;5054533;28;20487;-75
2023/08/01 00:48:51;;;;;;;5.65;3.28;;;;;;;;;;5054472;28;20048;-76
2023/08/01 00:51:18;;;;;;;9.88;3.95;;;;;;;;;;5054478;28;20037;-76
2023/08/01 00:53:46;;;;;;;13.20;4.05;;;;;;;;;;5054231;28;20500;-76
2023/08/01 00:56:12;;;;;;;8.65;3.55;;;;;;;;;;5054511;28;20347;-76
2023/08/01 00:58:38;;;;;;;9.43;3.60;;;;;;;;;;5054205;28;20025;-76
2023/08/01 01:01:04;;;;;;;6.28;3.47;;;;;;;;;;5054112;28;20025;-76
2023/08/01 01:03:30;;;;;;;9.52;3.75;;;;;;;;;;5054061;28;20052;-76
2023/08/01 01:06:02;;;;;;;9.95;4.00;;;;;;;;;;5054025;28;20379;-76
2023/08/01 01:08:28;;;;;;;9.25;3.50;;;;;;;;;;5054018;28;20481;-76
2023/08/01 01:10:54;;;;;;;11.05;3.67;;;;;;;;;;5053973;28;20033;-76
2023/08/01 01:13:20;;;;;;;10.70;3.33;;;;;;;;;;5053650;28;20144;-76
2023/08/01 01:15:46;;;;;;;7.45;3.38;;;;;;;;;;5053844;28;20029;-76
2023/08/01 01:18:12;;;;;;;8.88;3.47;;;;;;;;;;5053729;28;20095;-76
2023/08/01 01:20:38;;;;;;;10.55;3.15;;;;;;;;;;5053761;28;20029;-76
2023/08/01 01:23:05;;;;;;;9.55;3.65;;;;;;;;;;5053715;28;20052;-76
2023/08/01 01:25:32;;;;;;;7.05;2.88;;;;;;;;;;5053604;28;20039;-76
2023/08/01 01:27:59;;;;;;;9.65;3.28;;;;;;;;;;5053644;28;20427;-76
2023/08/01 01:30:26;;;;;;;12.32;3.13;;;;;;;;;;5053459;28;20032;-76
2023/08/01 01:32:52;;;;;;;13.30;3.75;;;;;;;;;;5053492;28;20100;-75
2023/08/01 01:35:18;;;;;;;8.82;3.90;;;;;;;;;;5053498;28;20032;-76
2023/08/01 01:37:44;;;;;;;8.50;3.88;;;;;;;;;;5053399;28;20038;-76
2023/08/01 01:40:11;;;;;;;8.88;4.10;;;;;;;;;;5053293;28;20024;-76
2023/08/01 01:42:37;;;;;;;10.15;3.67;;;;;;;;;;5053229;28;20020;-76
2023/08/01 01:45:03;;;;;;;11.40;3.38;;;;;;;;;;5053248;28;20048;-76
2023/08/01 01:47:29;;;;;;;10.30;3.50;;;;;;;;;;5053236;28;20025;-76
2023/08/01 01:49:55;;;;;;;11.75;3.63;;;;;;;;;;5053156;28;20021;-76
2023/08/01 01:52:21;;;;;;;12.98;3.88;;;;;;;;;;5053079;28;20108;-76
2023/08/01 01:54:47;;;;;;;20.95;3.78;;;;;;;;;;5052785;28;20021;-76
2023/08/01 01:57:13;;;;;;;16.15;4.20;;;;;;;;;;5052958;28;20028;-76
2023/08/01 01:59:39;;;;;;;12.85;3.78;;;;;;;;;;5052991;28;20031;-76
2023/08/01 02:02:05;;;;;;;11.23;3.28;;;;;;;;;;5053159;28;20056;-76
2023/08/01 02:04:31;;;;;;;9.60;3.15;;;;;;;;;;5053178;28;20060;-76
2023/08/01 02:06:57;;;;;;;10.13;2.60;;;;;;;;;;5052787;28;20025;-76
2023/08/01 02:09:23;;;;;;;11.57;2.60;;;;;;;;;;5052912;28;20075;-76
2023/08/01 02:11:49;;;;;;;13.00;2.40;;;;;;;;;;5052728;28;20029;-76
2023/08/01 02:14:15;;;;;;;11.95;1.90;;;;;;;;;;5052496;28;20119;-76
2023/08/01 02:16:41;;;;;;;12.75;1.95;;;;;;;;;;5052906;28;20067;-76
2023/08/01 02:19:07;;;;;;;12.98;1.70;;;;;;;;;;5052765;28;20459;-76
2023/08/01 02:21:33;;;;;;;12.40;1.60;;;;;;;;;;5052591;28;20047;-76
2023/08/01 02:23:59;;;;;;;13.43;1.70;;;;;;;;;;5052561;28;20017;-76
2023/08/01 02:26:25;;;;;;;6.47;1.17;;;;;;;;;;5052585;28;20108;-76
2023/08/01 02:28:51;;;;;;;7.95;1.40;;;;;;;;;;5052580;28;20033;-76
2023/08/01 02:31:17;;;;;;;4.93;1.20;;;;;;;;;;5052475;28;20083;-76
2023/08/01 02:33:43;;;;;;;4.20;0.93;;;;;;;;;;5052470;28;20513;-76
2023/08/01 02:36:09;;;;;;;4.10;1.10;;;;;;;;;;5052465;28;20108;-76
2023/08/01 02:38:35;;;;;;;5.30;1.10;;;;;;;;;;5052389;28;20025;-76
2023/08/01 02:41:01;;;;;;;4.68;1.05;;;;;;;;;;5052382;28;20090;-76
2023/08/01 02:43:28;;;;;;;5.32;1.00;;;;;;;;;;5052439;28;20032;-76
2023/08/01 02:45:54;;;;;;;3.60;0.88;;;;;;;;;;5052440;28;20021;-76
2023/08/01 02:48:20;;;;;;;4.95;1.08;;;;;;;;;;5052224;28;20027;-76
2023/08/01 02:50:46;;;;;;;2.97;1.00;;;;;;;;;;5052256;28;20540;-76
2023/08/01 02:53:12;;;;;;;3.72;0.80;;;;;;;;;;5052055;28;20029;-76
2023/08/01 02:55:39;;;;;;;3.20;0.90;;;;;;;;;;5052063;28;20036;-76
2023/08/01 02:58:05;;;;;;;2.35;0.90;;;;;;;;;;5052431;28;20063;-76
2023/08/01 03:00:31;;;;;;;4.13;0.88;;;;;;;;;;5052193;28;20033;-76
2023/08/01 03:02:57;;;;;;;4.90;1.40;;;;;;;;;;5052473;28;20480;-76
2023/08/01 03:05:23;;;;;;;4.90;0.80;;;;;;;;;;5052149;28;20057;-76
2023/08/01 03:07:49;;;;;;;2.42;0.85;;;;;;;;;;5055213;28;20023;-76
2023/08/01 03:10:16;;;;;;;7.40;1.10;;;;;;;;;;5056103;28;20017;-76
2023/08/01 03:12:42;;;;;;;3.15;1.02;;;;;;;;;;5056188;28;20037;-76
2023/08/01 03:15:08;;;;;;;5.43;1.20;;;;;;;;;;5055959;28;20531;-76
2023/08/01 03:17:34;;;;;;;4.88;1.17;;;;;;;;;;5056056;28;20028;-76
2023/08/01 03:20:01;;;;;;;3.17;1.10;;;;;;;;;;5056056;28;20029;-76
2023/08/01 03:22:27;;;;;;;8.95;1.15;;;;;;;;;;5055900;28;20505;-75
2023/08/01 03:24:53;;;;;;;3.67;0.95;;;;;;;;;;5055928;28;20025;-76
2023/08/01 03:27:19;;;;;;;3.38;0.85;;;;;;;;;;5055899;28;20021;-76
2023/08/01 03:29:45;;;;;;;5.18;1.40;;;;;;;;;;5055752;28;20021;-76
2023/08/01 03:32:11;;;;;;;4.82;1.35;;;;;;;;;;5055735;28;20044;-76
2023/08/01 03:34:39;;;;;;;5.72;1.33;;;;;;;;;;5056046;28;20043;-76
2023/08/01 03:37:05;;;;;;;4.82;1.33;;;;;;;;;;5056164;28;20025;-76
2023/08/01 03:39:30;;;;;;;6.43;1.50;;;;;;;;;;5055596;28;20033;-76
2023/08/01 03:41:56;;;;;;;7.70;1.90;;;;;;;;;;5055715;28;20025;-76
2023/08/01 03:44:23;;;;;;;5.30;1.65;;;;;;;;;;5055701;28;20384;-76
2023/08/01 03:46:49;;;;;;;8.13;1.95;;;;;;;;;;5055684;28;20028;-76
2023/08/01 03:49:15;;;;;;;6.15;2.13;;;;;;;;;;5055612;28;20029;-76
2023/08/01 03:51:41;;;;;;;9.75;2.03;;;;;;;;;;5055596;28;20037;-76
2023/08/01 03:54:07;;;;;;;5.93;2.35;;;;;;;;;;5055430;28;20096;-76
2023/08/01 03:56:33;;;;;;;6.95;2.05;;;;;;;;;;5055338;28;20456;-76
2023/08/01 03:58:59;;;;;;;5.88;2.30;;;;;;;;;;5055090;28;20549;-76
2023/08/01 04:01:26;;;;;;;7.30;2.50;;;;;;;;;;5054830;28;20100;-77
2023/08/01 04:03:52;;;;;;;8.35;2.78;;;;;;;;;;5055046;28;20032;-76
2023/08/01 04:06:18;;;;;;;5.05;2.97;;;;;;;;;;5055089;28;20029;-76
2023/08/01 04:08:44;;;;;;;13.32;3.15;;;;;;;;;;5055083;28;20032;-76
2023/08/01 04:11:11;;;;;;;6.68;2.28;;;;;;;;;;5054971;28;20108;-76
2023/08/01 04:13:37;;;;;;;8.82;3.13;;;;;;;;;;5054859;28;20027;-76
2023/08/01 04:16:03;;;;;;;6.97;2.60;;;;;;;;;;5054793;28;20029;-76
2023/08/01 04:18:29;;;;;;;3.63;1.63;;;;;;;;;;5054656;28;20036;-76
2023/08/01 04:20:55;;;;;;;8.15;2.05;;;;;;;;;;5054928;28;20017;-76
2023/08/01 04:23:21;;;;;;;9.10;1.98;;;;;;;;;;5054888;28;20036;-76
2023/08/01 04:25:47;;;;;;;5.55;1.75;;;;;;;;;;5054875;28;20074;-75
2023/08/01 04:28:13;;;;;;;9.85;1.95;;;;;;;;;;5054675;28;20481;-74
2023/08/01 04:30:39;;;;;;;7.70;1.90;;;;;;;;;;5054350;28;20036;-74
2023/08/01 04:33:05;;;;;;;6.38;1.48;;;;;;;;;;5054777;28;20017;-75
2023/08/01 04:35:31;;;;;;;7.43;1.77;;;;;;;;;;5054629;28;20048;-75
2023/08/01 04:37:57;;;;;;;7.05;1.75;;;;;;;;;;5054817;28;20029;-75
2023/08/01 04:40:23;;;;;;;6.45;1.70;;;;;;;;;;5054614;28;20029;-75
2023/08/01 04:42:49;;;;;;;5.57;1.65;;;;;;;;;;5054455;28;20701;-75
2023/08/01 04:45:15;;;;;;;7.72;1.63;;;;;;;;;;5054411;28;20036;-75
2023/08/01 04:47:41;;;;;;;8.52;1.70;;;;;;;;;;5054415;28;20383;-75
2023/08/01 04:50:07;;;;;;;3.58;1.38;;;;;;;;;;5054241;28;20029;-75
2023/08/01 04:52:33;;;;;;;8.10;1.63;;;;;;;;;;5054225;28;20064;-76
2023/08/01 04:54:59;;;;;;;5.35;1.60;;;;;;;;;;5054184;28;20064;-76
2023/08/01 04:57:25;;;;;;;7.82;1.80;;;;;;;;;;5054190;28;20411;-76
2023/08/01 04:59:51;;;;;;;8.52;2.20;;;;;;;;;;5054170;28;20029;-76
2023/08/01 05:02:17;;;;;;;6.20;1.50;;;;;;;;;;5054106;28;20440;-76
2023/08/01 05:04:43;;;;;;;4.22;0.82;;;;;;;;;;5054084;28;20082;-76
2023/08/01 05:07:09;;;;;;;7.50;1.20;;;;;;;;;;5054041;28;20025;-76
2023/08/01 05:09:35;;;;;;;11.05;1.17;;;;;;;;;;5053984;28;20032;-76
2023/08/01 05:12:01;;;;;;;7.78;1.20;;;;;;;;;;5053869;28;20428;-76
2023/08/01 05:14:27;;;;;;;6.95;1.20;;;;;;;;;;5053750;28;20519;-77
2023/08/01 05:16:53;;;;;;;7.93;0.95;;;;;;;;;;5053807;28;20059;-76
2023/08/01 05:19:21;;;;;;;4.45;1.05;;;;;;;;;;5053691;28;20078;-76
2023/08/01 05:21:48;;;;;;;5.45;0.98;;;;;;;;;;5053703;28;20356;-76
2023/08/01 05:24:14;;;;;;;4.07;1.13;;;;;;;;;;5053603;28;20096;-76
2023/08/01 05:26:41;;;;;;;6.55;1.10;;;;;;;;;;5053591;28;20036;-76
2023/08/01 05:29:07;;;;;;;7.47;1.30;;;;;;;;;;5052992;28;20140;-76
2023/08/01 05:31:33;;;;;;;2.17;0.77;;;;;;;;;;5053531;28;20120;-76
2023/08/01 05:33:59;;;;;;;7.20;1.45;;;;;;;;;;5053521;28;20021;-75
2023/08/01 05:36:25;;;;;;;5.38;1.27;;;;;;;;;;5053392;28;20032;-75
2023/08/01 05:38:51;;;;;;;6.03;1.38;;;;;;;;;;5053456;28;20515;-75
2023/08/01 05:41:17;;;;;;;9.63;1.60;;;;;;;;;;5053235;28;20423;-75
2023/08/01 05:43:44;;;;;;;5.82;1.42;;;;;;;;;;5053167;28;20025;-76
2023/08/01 05:46:10;;;;;;;5.20;2.05;;;;;;;;;;5053321;28;20025;-76
2023/08/01 05:48:36;;;;;;;8.75;2.08;;;;;;;;;;5052986;28;20025;-75
2023/08/01 05:51:02;;;;;;;6.35;1.63;;;;;;;;;;5053033;28;20029;-75
2023/08/01 05:53:29;;;;;;;12.38;2.15;;;;;;;;;;5053198;28;20025;-75
2023/08/01 05:55:55;;;;;;;10.32;1.90;;;;;;;;;;5053353;28;20028;-75
2023/08/01 05:58:21;;;;;;;12.15;2.03;;;;;;;;;;5053062;28;20029;-75
2023/08/01 06:00:47;;;;;;;8.60;1.52;;;;;;;;;;5053046;28;20561;-75
2023/08/01 06:03:13;;;;;;;14.30;2.40;;;;;;;;;;5052991;28;20045;-75
2023/08/01 06:05:39;;;;;;;9.13;1.63;;;;;;;;;;5053066;28;20385;-75
2023/08/01 06:08:07;;;;;;;8.85;2.05;;;;;;;;;;5053320;28;20036;-75
2023/08/01 06:10:33;;;;;;;9.45;2.30;;;;;;;;;;5053052;28;20064;-76
2023/08/01 06:13:00;;;;;;;5.32;1.48;;;;;;;;;;5052846;28;20061;-76
2023/08/01 06:15:25;;;;;;;11.93;2.17;;;;;;;;;;5052524;28;20571;-75
2023/08/01 06:17:51;;;;;;;5.88;1.67;;;;;;;;;;5052682;28;20088;-75
2023/08/01 06:20:18;;;;;;;5.22;1.83;;;;;;;;;;5052407;28;20464;-76
2023/08/01 06:22:44;;;;;;;8.20;1.80;;;;;;;;;;5052590;28;20345;-75
2023/08/01 06:25:10;;;;;;;5.20;1.55;;;;;;;;;;5052432;28;20079;-75
2023/08/01 06:27:36;;;;;;;7.25;1.75;;;;;;;;;;5052413;28;20075;-75
2023/08/01 06:30:02;;;;;;;12.68;2.35;;;;;;;;;;5052533;28;20021;-75
2023/08/01 06:32:28;;;;;;;8.65;1.90;;;;;;;;;;5052392;28;20500;-75
2023/08/01 06:34:54;;;;;;;8.52;2.50;;;;;;;;;;5052442;28;20028;-75
2023/08/01 06:37:20;;;;;;;7.63;2.03;;;;;;;;;;5052445;28;20021;-75
2023/08/01 06:39:46;;;;;;;7.72;2.28;;;;;;;;;;5052479;28;20044;-75
2023/08/01 06:42:12;;;;;;;10.30;2.20;;;;;;;;;;5051349;28;20025;-76
2023/08/01 06:44:38;;;;;;;9.27;2.40;;;;;;;;;;5052233;28;20052;-76
2023/08/01 06:47:05;;;;;;;11.25;1.90;;;;;;;;;;5052273;28;20021;-76
2023/08/01 06:49:31;;;;;;;11.88;1.70;;;;;;;;;;5052354;28;20071;-76
2023/08/01 06:51:57;;;;;;;11.30;1.95;;;;;;;;;;5052217;28;20033;-76
2023/08/01 06:54:23;;;;;;;8.55;2.28;;;;;;;;;;5052142;28;20032;-76
2023/08/01 06:56:49;;;;;;;8.98;2.20;;;;;;;;;;5052166;28;20028;-75
2023/08/01 06:59:15;;;;;;;10.30;2.90;;;;;;;;;;5052246;28;20365;-75
2023/08/01 07:01:43;;;;;;;11.75;2.05;;;;;;;;;;5052131;28;20040;-76
2023/08/01 07:04:13;;;;;;;10.98;2.55;;;;;;;;;;5052551;28;20031;-76
2023/08/01 07:06:39;;;;;;;6.63;2.05;;;;;;;;;;5052239;28;20476;-76
2023/08/01 07:09:05;;;;;;;9.75;1.90;;;;;;;;;;5052151;28;20045;-76
2023/08/01 07:11:31;;;;;;;10.10;1.60;;;;;;;;;;5052094;28;20056;-76
2023/08/01 07:14:04;;;;;;;3.47;0.68;;;;;;;;;;5050876;28;20480;-76
2023/08/01 07:16:30;;;;;;;2.90;0.95;;;;;;;;;;5052090;28;20029;-76
2023/08/01 07:18:56;;;;;;;4.53;0.60;;;;;;;;;;5050778;28;20484;-76
2023/08/01 07:21:22;;;;;;;5.22;1.13;;;;;;;;;;5051958;28;20067;-76
2023/08/01 07:23:48;;;;;;;9.50;1.38;;;;;;;;;;5052012;28;20025;-76
2023/08/01 07:26:15;;;;;;;7.18;1.70;;;;;;;;;;5051913;28;20036;-76
2023/08/01 07:28:41;;;;;;;6.93;1.67;;;;;;;;;;5051974;28;20057;-75
2023/08/01 07:31:07;;;;;;;5.45;1.30;;;;;;;;;;5052079;28;20033;-76
2023/08/01 07:33:34;;;;;;;9.27;1.67;;;;;;;;;;5051815;28;20056;-76
2023/08/01 07:36:00;;;;;;;9.10;1.65;;;;;;;;;;5051911;28;20514;-76
2023/08/01 07:38:31;;;;;;;8.45;1.77;;;;;;;;;;5051868;28;20029;-76
2023/08/01 07:40:58;;;;;;;9.65;1.70;;;;;;;;;;5052063;28;20495;-76
2023/08/01 07:43:24;;;;;;;5.97;1.20;;;;;;;;;;5051879;28;20479;-76
2023/08/01 07:45:50;;;;;;;5.03;1.10;;;;;;;;;;5051952;28;20025;-77
2023/08/01 07:48:16;;;;;;;8.55;1.65;;;;;;;;;;5051974;28;20021;-77
2023/08/01 07:50:43;;;;;;;6.22;1.70;;;;;;;;;;5051645;28;20021;-76
2023/08/01 07:53:09;;;;;;;7.72;1.42;;;;;;;;;;5053533;28;20535;-75
2023/08/01 07:55:35;;;;;;;7.30;1.42;;;;;;;;;;5055411;28;20426;-75
2023/08/01 07:58:02;;;;;;;3.13;1.10;;;;;;;;;;5055341;28;20060;-76
2023/08/01 08:00:28;;;;;;;4.35;1.33;;;;;;;;;;5055348;28;20025;-76
2023/08/01 08:02:54;;;;;;;9.48;1.83;;;;;;;;;;5055157;28;20083;-76
2023/08/01 08:05:20;;;;;;;5.43;1.52;;;;;;;;;;5055393;28;20080;-76
2023/08/01 08:07:46;;;;;;;11.68;1.83;;;;;;;;;;5055104;28;20095;-76
2023/08/01 08:10:14;;;;;;;5.47;1.80;;;;;;;;;;5055194;28;20455;-76
2023/08/01 08:12:40;;;;;;;5.93;1.60;;;;;;;;;;5055318;28;20360;-76
2023/08/01 08:15:06;;;;;;;6.88;1.52;;;;;;;;;;5054838;28;20051;-76
2023/08/01 08:17:32;;;;;;;4.40;1.25;;;;;;;;;;5055029;28;20063;-76
2023/08/01 08:19:58;;;;;;;5.10;1.10;;;;;;;;;;5054951;28;20052;-76
2023/08/01 08:22:24;;;;;;;4.68;1.38;;;;;;;;;;5054862;28;20415;-76
2023/08/01 08:24:50;;;;;;;8.35;2.13;;;;;;;;;;5054779;28;20056;-76
2023/08/01 08:27:16;;;;;;;6.95;1.50;;;;;;;;;;5054789;28;20103;-76
2023/08/01 08:29:42;;;;;;;4.85;1.48;;;;;;;;;;5055101;28;20361;-76
2023/08/01 08:32:08;;;;;;;5.90;1.13;;;;;;;;;;5054640;28;20513;-76
2023/08/01 08:34:34;;;;;;;4.60;1.27;;;;;;;;;;5054649;28;20021;-76
2023/08/01 08:37:00;;;;;;;4.10;1.20;;;;;;;;;;5053352;28;20027;-76
2023/08/01 08:39:26;;;;;;;5.70;1.50;;;;;;;;;;5054575;28;20025;-76
2023/08/01 08:41:53;;;;;;;3.67;1.00;;;;;;;;;;5054530;28;20039;-76
2023/08/01 08:44:24;;;;;;;3.10;1.40;;;;;;;;;;5054336;28;20631;-76
2023/08/01 08:46:51;;;;;;;3.63;1.55;;;;;;;;;;5054590;28;20028;-76
2023/08/01 08:49:19;;;;;;;2.83;1.30;;;;;;;;;;5054456;28;20029;-76
2023/08/01 08:51:46;;;;;;;5.82;1.33;;;;;;;;;;5054203;28;20033;-76
2023/08/01 08:54:13;;;;;;;4.18;1.40;;;;;;;;;;5054208;28;20032;-76
2023/08/01 08:56:40;;;;;;;3.47;1.17;;;;;;;;;;5054339;28;20108;-76
2023/08/01 08:59:07;;;;;;;3.50;1.35;;;;;;;;;;5054595;28;20448;-76
2023/08/01 09:01:34;;;;;;;4.25;1.38;;;;;;;;;;5054201;28;20039;-76
2023/08/01 09:04:00;;;;;;;5.07;1.52;;;;;;;;;;5053135;28;20060;-76
2023/08/01 09:06:30;;;;;;;5.30;1.30;;;;;;;;;;5054339;28;20029;-76
2023/08/01 09:09:02;;;;;;;6.07;1.60;;;;;;;;;;5053868;28;20075;-77
2023/08/01 09:11:28;;;;;;;5.95;1.83;;;;;;;;;;5053948;28;20037;-76
2023/08/01 09:13:54;;;;;;;2.70;1.60;;;;;;;;;;5053704;28;20045;-76
2023/08/01 09:16:20;;;;;;;4.32;1.55;;;;;;;;;;5053936;28;20027;-77
2023/08/01 09:18:51;;;;;;;5.97;1.50;;;;;;;;;;5053885;28;20025;-77
2023/08/01 09:21:20;;;;;;;5.15;1.70;;;;;;;;;;5053815;28;20052;-77
2023/08/01 09:23:47;;;;;;;4.45;1.42;;;;;;;;;;5054016;28;20071;-77
2023/08/01 09:26:13;;;;;;;6.10;1.70;;;;;;;;;;5053660;28;20017;-77
2023/08/01 09:28:39;;;;;;;6.65;1.85;;;;;;;;;;5053675;28;20087;-76
2023/08/01 09:31:05;;;;;;;5.63;1.50;;;;;;;;;;5053954;28;20411;-77
2023/08/01 09:33:39;;;;;;;8.95;2.08;;;;;;;;;;5053696;28;20036;-76
2023/08/01 09:36:05;;;;;;;4.15;1.55;;;;;;;;;;5053661;28;20028;-76
2023/08/01 09:38:35;;;;;;;10.40;1.88;;;;;;;;;;5053934;28;20495;-77
2023/08/01 09:41:01;;;;;;;4.68;1.23;;;;;;;;;;5053696;28;20025;-77
2023/08/01 09:43:34;;;;;;;8.40;1.70;;;;;;;;;;5053366;28;20032;-77
2023/08/01 09:46:01;;;;;;;7.55;2.00;;;;;;;;;;5053411;28;20387;-77
2023/08/01 09:48:27;;;;;;;6.35;1.30;;;;;;;;;;5053346;28;20095;-77
2023/08/01 09:51:06;;;;;;;7.88;1.88;;;;;;;;;;5053394;28;20395;-76
2023/08/01 09:53:33;;;;;;;6.10;1.15;;;;;;;;;;5053242;28;20112;-76
2023/08/01 09:56:03;;;;;;;3.85;0.93;;;;;;;;;;5053194;28;20028;-76
2023/08/01 09:58:33;;;;;;;4.32;1.27;;;;;;;;;;5053130;28;20025;-76
2023/08/01 10:01:01;;;;;;;4.18;1.20;;;;;;;;;;5053356;28;20178;-76
2023/08/01 10:03:28;;;;;;;5.68;1.17;;;;;;;;;;5053022;28;20427;-77
2023/08/01 10:05:55;;;;;;;5.43;1.10;;;;;;;;;;5053162;28;20452;-76
2023/08/01 10:08:22;;;;;;;4.65;0.80;;;;;;;;;;5053055;28;20165;-76
2023/08/01 10:10:48;;;;;;;5.70;0.80;;;;;;;;;;5052666;28;20078;-76
2023/08/01 10:13:14;;;;;;;4.10;1.17;;;;;;;;;;5052859;28;20021;-77
2023/08/01 10:15:41;;;;;;;6.60;1.50;;;;;;;;;;5051032;28;20033;-76
2023/08/01 10:18:09;;;;;;;3.35;1.05;;;;;;;;;;5052669;28;20021;-76
2023/08/01 10:20:37;;;;;;;2.90;1.10;;;;;;;;;;5052983;28;20024;-76
2023/08/01 10:23:03;;;;;;;5.05;1.00;;;;;;;;;;5052769;28;20458;-77
2023/08/01 10:25:31;;;;;;;4.22;1.00;;;;;;;;;;5052512;28;20108;-76
2023/08/01 10:28:00;;;;;;;6.20;0.90;;;;;;;;;;5052653;28;20071;-76
2023/08/01 10:30:27;;;;;;;10.02;1.70;;;;;;;;;;5052622;28;20028;-76
2023/08/01 10:32:58;;;;;;;4.90;1.15;;;;;;;;;;5052441;28;20072;-76
2023/08/01 10:35:36;;;;;;;5.80;1.08;;;;;;;;;;5052593;28;20033;-76
2023/08/01 10:38:10;;;;;;;3.85;1.15;;;;;;;;;;5052534;28;20027;-76
2023/08/01 10:40:41;;;;;;;5.80;1.40;;;;;;;;;;5052441;28;20052;-77
2023/08/01 10:43:19;;;;;;;8.60;1.60;;;;;;;;;;5052689;28;20025;-77
2023/08/01 10:45:45;;;;;;;6.57;1.20;;;;;;;;;;5052683;28;20029;-77
2023/08/01 10:48:12;;;;;;;3.90;1.10;;;;;;;;;;5052370;28;20035;-77
2023/08/01 10:50:38;;;;;;;6.70;1.30;;;;;;;;;;5052358;28;20017;-77
2023/08/01 10:53:05;;;;;;;5.82;1.35;;;;;;;;;;5052585;28;20120;-77
2023/08/01 10:55:41;;;;;;;3.38;1.10;;;;;;;;;;5052333;28;20052;-76
2023/08/01 10:58:08;;;;;;;3.38;1.45;;;;;;;;;;5052226;28;20048;-77
2023/08/01 11:00:34;;;;;;;6.60;1.45;;;;;;;;;;5052203;28;20029;-76
2023/08/01 11:03:00;;;;;;;2.65;1.02;;;;;;;;;;5052202;28;20025;-77
2023/08/01 11:05:28;;;;;;;4.07;1.27;;;;;;;;;;5052142;28;20071;-76
2023/08/01 11:07:58;;;;;;;6.22;1.42;;;;;;;;;;5052157;28;20036;-76
2023/08/01 11:10:25;;;;;;;7.43;1.48;;;;;;;;;;5052159;28;20025;-76
2023/08/01 11:12:51;;;;;;;4.40;1.15;;;;;;;;;;5052005;28;20110;-77
2023/08/01 11:15:17;;;;;;;6.60;1.35;;;;;;;;;;5052021;28;20202;-76
2023/08/01 11:17:47;;;;;;;5.88;1.30;;;;;;;;;;5051930;28;20025;-77
2023/08/01 11:20:13;;;;;;;4.63;1.35;;;;;;;;;;5052283;28;20082;-76
2023/08/01 11:22:50;;;;;;;6.13;1.45;;;;;;;;;;5052030;28;20029;-76
2023/08/01 11:25:16;;;;;;;7.82;1.95;;;;;;;;;;5052039;28;20029;-76
2023/08/01 11:27:42;;;;;;;6.47;1.60;;;;;;;;;;5053012;28;20059;-76
2023/08/01 11:30:08;;;;;;;4.10;1.55;;;;;;;;;;5055860;28;20033;-76
2023/08/01 11:32:35;;;;;;;5.57;1.55;;;;;;;;;;5056083;28;20029;-76
2023/08/01 11:35:01;;;;;;;3.45;1.58;;;;;;;;;;5055755;28;20024;-76
2023/08/01 11:37:27;;;;;;;5.07;1.27;;;;;;;;;;5055777;28;20021;-76
2023/08/01 11:39:53;;;;;;;5.55;1.20;;;;;;;;;;5055749;28;20071;-76
2023/08/01 11:42:19;;;;;;;5.35;1.30;;;;;;;;;;5055697;28;20037;-76
2023/08/01 11:44:45;;;;;;;7.13;1.42;;;;;;;;;;5055660;28;20041;-76
2023/08/01 11:47:15;;;;;;;5.43;1.58;;;;;;;;;;5055596;28;20025;-76
2023/08/01 11:49:48;;;;;;;5.93;1.20;;;;;;;;;;5055527;28;20021;-76
2023/08/01 11:52:27;;;;;;;4.20;1.20;;;;;;;;;;5055455;28;20102;-76
2023/08/01 11:54:54;;;;;;;6.85;1.63;;;;;;;;;;5055438;28;20057;-76
2023/08/01 11:57:23;;;;;;;5.50;1.63;;;;;;;;;;5055220;28;20047;-76
2023/08/01 11:59:50;;;;;;;4.30;1.08;;;;;;;;;;5055525;28;20052;-76
2023/08/01 12:02:23;;;;;;;4.05;1.10;;;;;;;;;;5055116;28;20115;-76
2023/08/01 12:04:49;;;;;;;6.15;1.33;;;;;;;;;;5054999;28;20483;-77
2023/08/01 12:07:16;;;;;;;7.93;2.00;;;;;;;;;;5055126;28;20473;-76
2023/08/01 12:09:42;;;;;;;9.55;1.95;;;;;;;;;;5054992;28;20040;-76
2023/08/01 12:12:09;;;;;;;5.22;1.50;;;;;;;;;;5054909;28;20031;-76
2023/08/01 12:14:39;;;;;;;5.10;1.60;;;;;;;;;;5054402;28;20041;-75
2023/08/01 12:17:05;;;;;;;6.35;1.30;;;;;;;;;;5055343;28;20025;-75
2023/08/01 12:19:33;;;;;;;4.95;1.67;;;;;;;;;;5055271;28;20105;-75
2023/08/01 12:22:00;;;;;;;5.38;1.50;;;;;;;;;;5055265;28;20112;-75
2023/08/01 12:24:26;;;;;;;3.72;1.20;;;;;;;;;;5055096;28;20021;-75
2023/08/01 12:26:52;;;;;;;4.35;1.30;;;;;;;;;;5055220;28;20487;-75
2023/08/01 12:29:18;;;;;;;7.45;1.70;;;;;;;;;;5054863;28;20078;-75
2023/08/01 12:31:45;;;;;;;5.03;1.35;;;;;;;;;;5054644;28;20035;-75
2023/08/01 12:34:11;;;;;;;5.70;1.55;;;;;;;;;;5055045;28;20025;-75
2023/08/01 12:36:37;;;;;;;4.72;1.50;;;;;;;;;;5054670;28;20021;-75
2023/08/01 12:39:04;;;;;;;6.28;0.90;;;;;;;;;;5054546;28;20032;-75
2023/08/01 12:41:31;;;;;;;2.45;1.08;;;;;;;;;;5054886;28;20029;-75
2023/08/01 12:43:57;;;;;;;5.28;1.17;;;;;;;;;;5054692;28;20053;-75
2023/08/01 12:46:23;;;;;;;3.20;1.02;;;;;;;;;;5054606;28;20033;-75
2023/08/01 12:48:49;;;;;;;2.20;0.80;;;;;;;;;;5054441;28;20031;-75
2023/08/01 12:51:15;;;;;;;1.60;0.80;;;;;;;;;;5054248;28;20060;-75
2023/08/01 12:53:41;;;;;;;2.72;0.90;;;;;;;;;;5054616;28;20029;-75
2023/08/01 12:56:08;;;;;;;3.72;1.20;;;;;;;;;;5054315;28;20029;-75
2023/08/01 12:58:34;;;;;;;7.32;1.85;;;;;;;;;;5054145;28;20456;-75
2023/08/01 13:01:03;;;;;;;3.10;1.10;;;;;;;;;;5054272;28;20404;-75
2023/08/01 13:03:29;;;;;;;6.25;1.23;;;;;;;;;;5054476;28;20027;-75
2023/08/01 13:05:57;;;;;;;2.95;1.25;;;;;;;;;;5054118;28;20112;-75
2023/08/01 13:08:23;;;;;;;5.28;1.30;;;;;;;;;;5054067;28;20095;-75
2023/08/01 13:10:49;;;;;;;3.78;1.17;;;;;;;;;;5054160;28;20029;-75
2023/08/01 13:13:16;;;;;;;5.25;1.13;;;;;;;;;;5053943;28;20017;-75
2023/08/01 13:15:42;;;;;;;2.70;1.30;;;;;;;;;;5053445;28;20392;-75
2023/08/01 13:18:08;;;;;;;5.70;1.75;;;;;;;;;;5052888;28;20029;-75
2023/08/01 13:20:34;;;;;;;3.85;1.02;;;;;;;;;;5054143;28;20036;-75
2023/08/01 13:23:00;;;;;;;7.05;1.35;;;;;;;;;;5053835;28;20060;-75
2023/08/01 13:25:26;;;;;;;4.30;1.30;;;;;;;;;;5053723;28;20044;-75
2023/08/01 13:27:52;;;;;;;2.97;0.98;;;;;;;;;;5053675;28;20040;-75
2023/08/01 13:30:19;;;;;;;1.98;1.00;;;;;;;;;;5053428;28;20487;-75
2023/08/01 13:32:46;;;;;;;2.95;1.20;;;;;;;;;;5053814;28;20033;-75
2023/08/01 13:35:12;;;;;;;5.13;1.10;;;;;;;;;;5053561;28;20044;-75
2023/08/01 13:37:38;;;;;;;6.68;1.60;;;;;;;;;;5053451;28;20096;-75
2023/08/01 13:40:05;;;;;;;6.10;1.27;;;;;;;;;;5052815;28;20420;-75
2023/08/01 13:42:31;;;;;;;9.68;1.60;;;;;;;;;;5053420;28;20550;-75
2023/08/01 13:44:57;;;;;;;5.88;1.65;;;;;;;;;;5053680;28;20044;-75
2023/08/01 13:47:23;;;;;;;3.63;1.20;;;;;;;;;;5053381;28;20404;-75
2023/08/01 13:49:49;;;;;;;4.13;1.02;;;;;;;;;;5052918;28;20029;-75
2023/08/01 13:52:15;;;;;;;4.90;1.25;;;;;;;;;;5053058;28;20425;-75
2023/08/01 13:54:41;;;;;;;6.25;1.50;;;;;;;;;;5053164;28;20460;-75
2023/08/01 13:57:07;;;;;;;5.15;1.63;;;;;;;;;;5053174;28;20025;-74
2023/08/01 13:59:33;;;;;;;4.47;1.48;;;;;;;;;;5053054;28;20060;-75
2023/08/01 14:01:59;;;;;;;5.82;1.60;;;;;;;;;;5052977;28;20479;-75
2023/08/01 14:04:25;;;;;;;7.32;1.80;;;;;;;;;;5052998;28;20108;-75
2023/08/01 14:06:51;;;;;;;3.75;1.42;;;;;;;;;;5052824;28;20453;-76
2023/08/01 14:09:17;;;;;;;7.97;1.98;;;;;;;;;;5052873;28;20112;-76
2023/08/01 14:11:43;;;;;;;5.05;1.63;;;;;;;;;;5052726;28;20040;-76
2023/08/01 14:14:09;;;;;;;2.03;1.00;;;;;;;;;;5052135;28;20041;-75
2023/08/01 14:16:35;;;;;;;6.90;1.70;;;;;;;;;;5051539;28;20032;-75
2023/08/01 14:19:03;;;;;;;2.65;1.23;;;;;;;;;;5052724;28;20364;-76
2023/08/01 14:21:29;;;;;;;5.50;1.80;;;;;;;;;;5052794;28;20032;-76
2023/08/01 14:23:55;;;;;;;4.50;1.30;;;;;;;;;;5054344;28;20017;-76
2023/08/01 14:26:21;;;;;;;5.72;1.80;;;;;;;;;;5052544;28;20025;-76
2023/08/01 14:28:47;;;;;;;5.63;1.80;;;;;;;;;;5052814;28;20029;-76
2023/08/01 14:31:14;;;;;;;9.13;1.40;;;;;;;;;;5052606;28;20082;-76
2023/08/01 14:33:40;;;;;;;4.60;1.30;;;;;;;;;;5052810;28;20036;-76
2023/08/01 14:36:12;;;;;;;4.82;1.10;;;;;;;;;;5052446;28;20028;-76